sensor_id;sensor_type;location;lat;lon;timestamp;pressure;altitude;pressure_sealevel;temperature;humidity
76337;BME280;65157;50.082;18.178;2022-12-10T00:00:45;98014.80;;;1.65;85.34
76337;BME280;65157;50.082;18.178;2022-12-10T00:03:17;98015.50;;;1.65;85.14
76337;BME280;65157;50.082;18.178;2022-12-10T00:05:44;98015.41;;;1.62;85.16
76337;BME280;65157;50.082;18.178;2022-12-10T00:08:10;98017.64;;;1.63;85.34
76337;BME280;65157;50.082;18.178;2022-12-10T00:10:40;98018.87;;;1.63;85.31
76337;BME280;65157;50.082;18.178;2022-12-10T00:13:06;98022.82;;;1.64;85.23
76337;BME280;65157;50.082;18.178;2022-12-10T00:15:36;98023.48;;;1.66;85.14
76337;BME280;65157;50.082;18.178;2022-12-10T00:18:03;98026.35;;;1.69;85.17
76337;BME280;65157;50.082;18.178;2022-12-10T00:20:29;98028.27;;;1.69;85.14
76337;BME280;65157;50.082;18.178;2022-12-10T00:22:56;98028.36;;;1.72;85.35
76337;BME280;65157;50.082;18.178;2022-12-10T00:25:22;98026.89;;;1.75;84.97
76337;BME280;65157;50.082;18.178;2022-12-10T00:27:49;98027.30;;;1.73;84.97
76337;BME280;65157;50.082;18.178;2022-12-10T00:30:16;98023.91;;;1.69;84.92
76337;BME280;65157;50.082;18.178;2022-12-10T00:32:42;98026.55;;;1.68;85.23
76337;BME280;65157;50.082;18.178;2022-12-10T00:35:09;98030.06;;;1.67;85.28
76337;BME280;65157;50.082;18.178;2022-12-10T00:37:35;98035.04;;;1.69;85.05
76337;BME280;65157;50.082;18.178;2022-12-10T00:40:02;98042.23;;;1.68;85.09
76337;BME280;65157;50.082;18.178;2022-12-10T00:42:29;98039.73;;;1.63;85.16
76337;BME280;65157;50.082;18.178;2022-12-10T00:44:56;98045.92;;;1.59;85.10
76337;BME280;65157;50.082;18.178;2022-12-10T00:47:22;98044.19;;;1.52;85.15
76337;BME280;65157;50.082;18.178;2022-12-10T00:49:49;98048.72;;;1.51;85.30
76337;BME280;65157;50.082;18.178;2022-12-10T00:52:16;98039.73;;;1.50;85.41
76337;BME280;65157;50.082;18.178;2022-12-10T00:54:42;98041.20;;;1.53;85.23
76337;BME280;65157;50.082;18.178;2022-12-10T00:57:09;98041.61;;;1.57;85.33
76337;BME280;65157;50.082;18.178;2022-12-10T00:59:35;98041.99;;;1.63;85.39
76337;BME280;65157;50.082;18.178;2022-12-10T01:02:02;98039.20;;;1.63;85.23
76337;BME280;65157;50.082;18.178;2022-12-10T01:04:29;98043.06;;;1.62;85.31
76337;BME280;65157;50.082;18.178;2022-12-10T01:06:55;98054.03;;;1.62;85.25
76337;BME280;65157;50.082;18.178;2022-12-10T01:09:24;98064.64;;;1.62;85.31
76337;BME280;65157;50.082;18.178;2022-12-10T01:11:52;98061.75;;;1.59;85.31
76337;BME280;65157;50.082;18.178;2022-12-10T01:14:25;98056.17;;;1.59;85.49
76337;BME280;65157;50.082;18.178;2022-12-10T01:16:57;98056.70;;;1.59;85.48
76337;BME280;65157;50.082;18.178;2022-12-10T01:19:24;98060.08;;;1.56;85.52
76337;BME280;65157;50.082;18.178;2022-12-10T01:21:55;98064.88;;;1.59;85.63
76337;BME280;65157;50.082;18.178;2022-12-10T01:24:24;98063.08;;;1.61;85.39
76337;BME280;65157;50.082;18.178;2022-12-10T01:26:51;98060.38;;;1.58;85.40
76337;BME280;65157;50.082;18.178;2022-12-10T01:29:18;98057.46;;;1.56;85.71
76337;BME280;65157;50.082;18.178;2022-12-10T01:31:45;98060.79;;;1.56;85.57
76337;BME280;65157;50.082;18.178;2022-12-10T01:34:14;98066.45;;;1.59;85.67
76337;BME280;65157;50.082;18.178;2022-12-10T01:36:43;98070.80;;;1.64;85.53
76337;BME280;65157;50.082;18.178;2022-12-10T01:39:14;98082.70;;;1.69;85.56
76337;BME280;65157;50.082;18.178;2022-12-10T01:41:47;98083.34;;;1.65;85.58
76337;BME280;65157;50.082;18.178;2022-12-10T01:46:43;98087.61;;;1.60;85.64
76337;BME280;65157;50.082;18.178;2022-12-10T01:49:22;98091.36;;;1.57;85.62
76337;BME280;65157;50.082;18.178;2022-12-10T01:51:54;98090.83;;;1.57;85.66
76337;BME280;65157;50.082;18.178;2022-12-10T01:54:30;98082.72;;;1.55;85.73
76337;BME280;65157;50.082;18.178;2022-12-10T01:57:12;98080.86;;;1.53;85.94
76337;BME280;65157;50.082;18.178;2022-12-10T01:59:41;98081.00;;;1.54;85.79
76337;BME280;65157;50.082;18.178;2022-12-10T02:02:42;98071.60;;;1.54;85.89
76337;BME280;65157;50.082;18.178;2022-12-10T02:10:54;98070.75;;;1.53;85.85
76337;BME280;65157;50.082;18.178;2022-12-10T02:13:38;98066.64;;;1.58;85.97
76337;BME280;65157;50.082;18.178;2022-12-10T02:16:21;98066.20;;;1.61;85.93
76337;BME280;65157;50.082;18.178;2022-12-10T02:18:57;98066.05;;;1.60;85.66
76337;BME280;65157;50.082;18.178;2022-12-10T02:21:34;98061.70;;;1.61;85.68
76337;BME280;65157;50.082;18.178;2022-12-10T02:24:08;98060.27;;;1.62;85.72
76337;BME280;65157;50.082;18.178;2022-12-10T02:26:50;98066.26;;;1.66;85.61
76337;BME280;65157;50.082;18.178;2022-12-10T02:29:21;98070.96;;;1.65;85.87
76337;BME280;65157;50.082;18.178;2022-12-10T02:32:00;98068.26;;;1.69;85.80
76337;BME280;65157;50.082;18.178;2022-12-10T02:34:33;98077.52;;;1.68;85.56
76337;BME280;65157;50.082;18.178;2022-12-10T02:37:04;98085.52;;;1.61;85.53
76337;BME280;65157;50.082;18.178;2022-12-10T02:39:36;98089.46;;;1.56;85.79
76337;BME280;65157;50.082;18.178;2022-12-10T02:42:06;98090.00;;;1.56;85.74
76337;BME280;65157;50.082;18.178;2022-12-10T02:44:36;98087.32;;;1.59;85.74
76337;BME280;65157;50.082;18.178;2022-12-10T02:47:05;98089.98;;;1.63;85.71
76337;BME280;65157;50.082;18.178;2022-12-10T02:49:34;98083.21;;;1.62;85.61
76337;BME280;65157;50.082;18.178;2022-12-10T02:52:13;98086.61;;;1.66;85.61
76337;BME280;65157;50.082;18.178;2022-12-10T02:54:43;98088.66;;;1.68;85.65
76337;BME280;65157;50.082;18.178;2022-12-10T03:00:20;98088.63;;;1.62;85.71
76337;BME280;65157;50.082;18.178;2022-12-10T03:08:47;98117.27;;;1.70;85.70
76337;BME280;65157;50.082;18.178;2022-12-10T03:11:18;98123.14;;;1.73;85.67
76337;BME280;65157;50.082;18.178;2022-12-10T03:13:59;98122.81;;;1.72;85.67
76337;BME280;65157;50.082;18.178;2022-12-10T03:16:31;98119.64;;;1.66;85.54
76337;BME280;65157;50.082;18.178;2022-12-10T03:19:04;98118.52;;;1.63;85.63
76337;BME280;65157;50.082;18.178;2022-12-10T03:21:32;98115.92;;;1.62;85.68
76337;BME280;65157;50.082;18.178;2022-12-10T03:24:00;98109.27;;;1.64;85.64
76337;BME280;65157;50.082;18.178;2022-12-10T03:26:28;98110.17;;;1.70;85.58
76337;BME280;65157;50.082;18.178;2022-12-10T03:29:02;98110.23;;;1.74;85.76
76337;BME280;65157;50.082;18.178;2022-12-10T03:31:33;98109.30;;;1.69;85.66
76337;BME280;65157;50.082;18.178;2022-12-10T03:34:01;98104.49;;;1.67;85.66
76337;BME280;65157;50.082;18.178;2022-12-10T03:36:29;98105.54;;;1.67;85.59
76337;BME280;65157;50.082;18.178;2022-12-10T03:38:56;98113.22;;;1.66;85.56
76337;BME280;65157;50.082;18.178;2022-12-10T03:41:23;98112.52;;;1.66;85.62
76337;BME280;65157;50.082;18.178;2022-12-10T03:43:58;98111.73;;;1.69;85.53
76337;BME280;65157;50.082;18.178;2022-12-10T03:46:28;98117.10;;;1.71;85.68
76337;BME280;65157;50.082;18.178;2022-12-10T03:48:56;98114.65;;;1.71;85.81
76337;BME280;65157;50.082;18.178;2022-12-10T03:51:23;98110.69;;;1.70;85.60
76337;BME280;65157;50.082;18.178;2022-12-10T03:53:50;98106.88;;;1.68;85.74
76337;BME280;65157;50.082;18.178;2022-12-10T03:56:17;98105.84;;;1.69;85.73
76337;BME280;65157;50.082;18.178;2022-12-10T03:58:45;98107.04;;;1.70;85.73
76337;BME280;65157;50.082;18.178;2022-12-10T04:01:12;98121.77;;;1.71;85.56
76337;BME280;65157;50.082;18.178;2022-12-10T04:03:40;98129.20;;;1.74;85.71
76337;BME280;65157;50.082;18.178;2022-12-10T04:06:12;98136.02;;;1.79;85.79
76337;BME280;65157;50.082;18.178;2022-12-10T04:08:38;98142.24;;;1.81;85.72
76337;BME280;65157;50.082;18.178;2022-12-10T04:11:07;98149.27;;;1.78;85.53
76337;BME280;65157;50.082;18.178;2022-12-10T04:13:36;98156.02;;;1.80;85.56
76337;BME280;65157;50.082;18.178;2022-12-10T04:16:22;98163.66;;;1.80;85.44
76337;BME280;65157;50.082;18.178;2022-12-10T04:19:06;98172.52;;;1.80;85.56
76337;BME280;65157;50.082;18.178;2022-12-10T04:21:35;98175.13;;;1.81;85.54
76337;BME280;65157;50.082;18.178;2022-12-10T04:24:23;98181.41;;;1.80;85.37
76337;BME280;65157;50.082;18.178;2022-12-10T04:27:22;98181.14;;;1.77;85.40
76337;BME280;65157;50.082;18.178;2022-12-10T04:29:50;98185.19;;;1.75;85.39
76337;BME280;65157;50.082;18.178;2022-12-10T04:32:17;98176.83;;;1.76;85.74
76337;BME280;65157;50.082;18.178;2022-12-10T04:34:44;98173.77;;;1.79;85.58
76337;BME280;65157;50.082;18.178;2022-12-10T04:37:12;98175.08;;;1.82;85.45
76337;BME280;65157;50.082;18.178;2022-12-10T04:39:38;98173.55;;;1.88;85.58
76337;BME280;65157;50.082;18.178;2022-12-10T04:42:07;98173.08;;;1.93;85.51
76337;BME280;65157;50.082;18.178;2022-12-10T04:44:37;98168.21;;;1.92;85.38
76337;BME280;65157;50.082;18.178;2022-12-10T04:47:05;98168.74;;;1.92;85.54
76337;BME280;65157;50.082;18.178;2022-12-10T04:49:32;98171.16;;;1.94;85.34
76337;BME280;65157;50.082;18.178;2022-12-10T04:51:59;98167.80;;;1.95;85.43
76337;BME280;65157;50.082;18.178;2022-12-10T04:54:26;98170.41;;;1.95;85.30
76337;BME280;65157;50.082;18.178;2022-12-10T04:56:53;98177.30;;;1.98;85.31
76337;BME280;65157;50.082;18.178;2022-12-10T04:59:20;98178.25;;;2.02;85.08
76337;BME280;65157;50.082;18.178;2022-12-10T05:01:46;98176.74;;;1.99;85.10
76337;BME280;65157;50.082;18.178;2022-12-10T05:04:16;98176.17;;;2.01;85.29
76337;BME280;65157;50.082;18.178;2022-12-10T05:06:44;98171.50;;;2.00;85.11
76337;BME280;65157;50.082;18.178;2022-12-10T05:09:11;98174.10;;;2.00;85.03
76337;BME280;65157;50.082;18.178;2022-12-10T05:11:39;98172.17;;;2.01;85.04
76337;BME280;65157;50.082;18.178;2022-12-10T05:14:06;98169.71;;;2.02;85.19
76337;BME280;65157;50.082;18.178;2022-12-10T05:16:33;98175.02;;;2.05;85.16
76337;BME280;65157;50.082;18.178;2022-12-10T05:19:00;98176.02;;;2.06;85.24
76337;BME280;65157;50.082;18.178;2022-12-10T05:21:28;98181.64;;;2.06;85.00
76337;BME280;65157;50.082;18.178;2022-12-10T05:24:16;98187.28;;;2.02;84.83
76337;BME280;65157;50.082;18.178;2022-12-10T05:26:43;98185.13;;;1.98;84.95
76337;BME280;65157;50.082;18.178;2022-12-10T05:29:12;98185.21;;;1.95;85.04
76337;BME280;65157;50.082;18.178;2022-12-10T05:31:39;98177.23;;;1.93;84.94
76337;BME280;65157;50.082;18.178;2022-12-10T05:34:06;98174.01;;;1.91;85.08
76337;BME280;65157;50.082;18.178;2022-12-10T05:36:34;98167.55;;;1.92;85.05
76337;BME280;65157;50.082;18.178;2022-12-10T05:39:01;98157.65;;;1.91;85.00
76337;BME280;65157;50.082;18.178;2022-12-10T05:41:29;98152.79;;;1.90;85.00
76337;BME280;65157;50.082;18.178;2022-12-10T05:43:58;98157.49;;;1.90;84.94
76337;BME280;65157;50.082;18.178;2022-12-10T05:46:28;98157.89;;;1.88;85.09
76337;BME280;65157;50.082;18.178;2022-12-10T05:48:55;98166.22;;;1.89;85.10
76337;BME280;65157;50.082;18.178;2022-12-10T05:51:24;98182.59;;;1.88;84.94
76337;BME280;65157;50.082;18.178;2022-12-10T05:53:52;98195.52;;;1.86;85.09
76337;BME280;65157;50.082;18.178;2022-12-10T05:56:21;98190.78;;;1.88;85.06
76337;BME280;65157;50.082;18.178;2022-12-10T05:58:50;98185.51;;;1.90;85.00
76337;BME280;65157;50.082;18.178;2022-12-10T06:01:22;98192.30;;;1.90;85.01
76337;BME280;65157;50.082;18.178;2022-12-10T06:03:50;98201.92;;;1.88;84.98
76337;BME280;65157;50.082;18.178;2022-12-10T06:06:30;98198.80;;;1.87;85.17
76337;BME280;65157;50.082;18.178;2022-12-10T06:08:57;98201.46;;;1.85;84.92
76337;BME280;65157;50.082;18.178;2022-12-10T06:11:24;98198.67;;;1.86;85.05
76337;BME280;65157;50.082;18.178;2022-12-10T06:13:53;98201.01;;;1.89;85.02
76337;BME280;65157;50.082;18.178;2022-12-10T06:16:21;98199.94;;;1.90;85.01
76337;BME280;65157;50.082;18.178;2022-12-10T06:18:48;98199.64;;;1.82;85.24
76337;BME280;65157;50.082;18.178;2022-12-10T06:21:16;98208.48;;;1.75;85.08
76337;BME280;65157;50.082;18.178;2022-12-10T06:23:44;98209.81;;;1.71;85.25
76337;BME280;65157;50.082;18.178;2022-12-10T06:26:12;98215.80;;;1.75;85.20
76337;BME280;65157;50.082;18.178;2022-12-10T06:28:39;98218.20;;;1.77;85.33
76337;BME280;65157;50.082;18.178;2022-12-10T06:31:06;98209.11;;;1.78;85.20
76337;BME280;65157;50.082;18.178;2022-12-10T06:33:33;98207.76;;;1.84;85.47
76337;BME280;65157;50.082;18.178;2022-12-10T06:36:02;98216.69;;;1.88;85.51
76337;BME280;65157;50.082;18.178;2022-12-10T06:38:29;98225.81;;;1.92;85.30
76337;BME280;65157;50.082;18.178;2022-12-10T06:40:55;98235.36;;;1.94;85.38
76337;BME280;65157;50.082;18.178;2022-12-10T06:43:22;98239.05;;;1.92;85.00
76337;BME280;65157;50.082;18.178;2022-12-10T06:45:48;98245.06;;;1.88;85.21
76337;BME280;65157;50.082;18.178;2022-12-10T06:48:15;98253.17;;;1.84;85.20
76337;BME280;65157;50.082;18.178;2022-12-10T06:50:42;98264.75;;;1.87;85.35
76337;BME280;65157;50.082;18.178;2022-12-10T06:53:08;98258.55;;;1.91;85.13
76337;BME280;65157;50.082;18.178;2022-12-10T06:55:36;98247.80;;;1.97;85.35
76337;BME280;65157;50.082;18.178;2022-12-10T06:58:04;98245.60;;;2.02;85.20
76337;BME280;65157;50.082;18.178;2022-12-10T07:00:31;98248.30;;;2.05;85.12
76337;BME280;65157;50.082;18.178;2022-12-10T07:02:58;98251.86;;;2.02;84.98
76337;BME280;65157;50.082;18.178;2022-12-10T07:05:25;98251.52;;;1.94;84.96
76337;BME280;65157;50.082;18.178;2022-12-10T07:07:51;98250.70;;;1.92;85.06
76337;BME280;65157;50.082;18.178;2022-12-10T07:10:18;98259.50;;;1.95;84.95
76337;BME280;65157;50.082;18.178;2022-12-10T07:12:44;98266.25;;;1.97;84.98
76337;BME280;65157;50.082;18.178;2022-12-10T07:15:11;98267.23;;;1.99;85.11
76337;BME280;65157;50.082;18.178;2022-12-10T07:17:37;98264.52;;;2.04;84.92
76337;BME280;65157;50.082;18.178;2022-12-10T07:20:04;98262.84;;;2.09;85.01
76337;BME280;65157;50.082;18.178;2022-12-10T07:22:31;98264.77;;;2.08;84.61
76337;BME280;65157;50.082;18.178;2022-12-10T07:24:58;98265.12;;;2.07;84.72
76337;BME280;65157;50.082;18.178;2022-12-10T07:27:25;98270.09;;;2.04;84.71
76337;BME280;65157;50.082;18.178;2022-12-10T07:29:51;98269.75;;;2.03;84.85
76337;BME280;65157;50.082;18.178;2022-12-10T07:32:18;98271.19;;;2.02;84.92
76337;BME280;65157;50.082;18.178;2022-12-10T07:34:44;98275.23;;;2.07;84.80
76337;BME280;65157;50.082;18.178;2022-12-10T07:37:11;98266.84;;;2.09;84.75
76337;BME280;65157;50.082;18.178;2022-12-10T07:39:37;98260.55;;;2.09;84.76
76337;BME280;65157;50.082;18.178;2022-12-10T07:42:04;98254.23;;;2.11;84.90
76337;BME280;65157;50.082;18.178;2022-12-10T07:44:31;98257.14;;;2.13;84.82
76337;BME280;65157;50.082;18.178;2022-12-10T07:46:57;98253.48;;;2.14;84.85
76337;BME280;65157;50.082;18.178;2022-12-10T07:49:24;98253.32;;;2.13;84.70
76337;BME280;65157;50.082;18.178;2022-12-10T07:51:51;98253.09;;;2.15;84.68
76337;BME280;65157;50.082;18.178;2022-12-10T07:54:18;98253.96;;;2.15;84.70
76337;BME280;65157;50.082;18.178;2022-12-10T07:56:45;98251.66;;;2.17;84.71
76337;BME280;65157;50.082;18.178;2022-12-10T07:59:12;98247.55;;;2.14;84.60
76337;BME280;65157;50.082;18.178;2022-12-10T08:01:38;98252.06;;;2.08;84.66
76337;BME280;65157;50.082;18.178;2022-12-10T08:04:05;98264.02;;;2.03;84.66
76337;BME280;65157;50.082;18.178;2022-12-10T08:06:32;98270.71;;;1.99;84.77
76337;BME280;65157;50.082;18.178;2022-12-10T08:08:59;98275.08;;;1.99;84.90
76337;BME280;65157;50.082;18.178;2022-12-10T08:11:27;98283.20;;;1.94;84.63
76337;BME280;65157;50.082;18.178;2022-12-10T08:13:54;98288.79;;;1.93;84.87
76337;BME280;65157;50.082;18.178;2022-12-10T08:16:22;98290.20;;;1.92;84.89
76337;BME280;65157;50.082;18.178;2022-12-10T08:18:52;98292.88;;;1.89;84.77
76337;BME280;65157;50.082;18.178;2022-12-10T08:21:21;98292.23;;;1.86;84.84
76337;BME280;65157;50.082;18.178;2022-12-10T08:23:48;98289.77;;;1.80;85.04
76337;BME280;65157;50.082;18.178;2022-12-10T08:26:18;98281.58;;;1.81;85.21
76337;BME280;65157;50.082;18.178;2022-12-10T08:28:46;98275.09;;;1.83;85.17
76337;BME280;65157;50.082;18.178;2022-12-10T08:31:14;98274.34;;;1.86;85.14
76337;BME280;65157;50.082;18.178;2022-12-10T08:33:41;98278.08;;;1.89;85.07
76337;BME280;65157;50.082;18.178;2022-12-10T08:36:11;98276.50;;;1.90;85.19
76337;BME280;65157;50.082;18.178;2022-12-10T08:38:38;98275.29;;;1.89;85.25
76337;BME280;65157;50.082;18.178;2022-12-10T08:41:11;98275.64;;;1.89;85.15
76337;BME280;65157;50.082;18.178;2022-12-10T08:43:38;98280.52;;;1.89;85.22
76337;BME280;65157;50.082;18.178;2022-12-10T08:46:05;98286.08;;;1.90;85.17
76337;BME280;65157;50.082;18.178;2022-12-10T08:48:32;98285.31;;;1.93;85.28
76337;BME280;65157;50.082;18.178;2022-12-10T08:50:59;98288.90;;;1.95;85.23
76337;BME280;65157;50.082;18.178;2022-12-10T08:53:25;98290.70;;;2.00;85.08
76337;BME280;65157;50.082;18.178;2022-12-10T08:55:54;98296.06;;;2.02;85.11
76337;BME280;65157;50.082;18.178;2022-12-10T08:58:21;98292.23;;;2.02;85.16
76337;BME280;65157;50.082;18.178;2022-12-10T09:00:48;98287.83;;;2.03;84.98
76337;BME280;65157;50.082;18.178;2022-12-10T09:03:15;98282.59;;;2.05;85.17
76337;BME280;65157;50.082;18.178;2022-12-10T09:05:42;98270.53;;;2.06;85.02
76337;BME280;65157;50.082;18.178;2022-12-10T09:08:09;98262.05;;;2.05;85.03
76337;BME280;65157;50.082;18.178;2022-12-10T09:10:37;98262.16;;;2.00;85.10
76337;BME280;65157;50.082;18.178;2022-12-10T09:13:04;98259.36;;;2.01;84.86
76337;BME280;65157;50.082;18.178;2022-12-10T09:15:31;98261.80;;;2.01;84.98
76337;BME280;65157;50.082;18.178;2022-12-10T09:17:58;98256.09;;;2.00;84.81
76337;BME280;65157;50.082;18.178;2022-12-10T09:20:24;98253.52;;;1.98;84.88
76337;BME280;65157;50.082;18.178;2022-12-10T09:22:51;98260.14;;;1.98;85.02
76337;BME280;65157;50.082;18.178;2022-12-10T09:25:18;98258.30;;;1.94;84.95
76337;BME280;65157;50.082;18.178;2022-12-10T09:27:48;98252.92;;;1.86;85.06
76337;BME280;65157;50.082;18.178;2022-12-10T09:30:15;98256.30;;;1.91;85.11
76337;BME280;65157;50.082;18.178;2022-12-10T09:32:43;98260.96;;;1.92;85.12
76337;BME280;65157;50.082;18.178;2022-12-10T09:35:09;98267.06;;;1.92;85.15
76337;BME280;65157;50.082;18.178;2022-12-10T09:37:36;98260.36;;;1.96;85.13
76337;BME280;65157;50.082;18.178;2022-12-10T09:40:03;98258.95;;;1.97;85.09
76337;BME280;65157;50.082;18.178;2022-12-10T09:45:19;98254.31;;;2.00;84.99
76337;BME280;65157;50.082;18.178;2022-12-10T09:50:33;98250.25;;;1.97;85.07
76337;BME280;65157;50.082;18.178;2022-12-10T09:53:03;98258.88;;;2.00;85.08
76337;BME280;65157;50.082;18.178;2022-12-10T09:55:39;98264.23;;;2.01;84.93
76337;BME280;65157;50.082;18.178;2022-12-10T09:58:13;98268.07;;;2.01;84.97
76337;BME280;65157;50.082;18.178;2022-12-10T10:00:45;98263.15;;;2.03;84.99
76337;BME280;65157;50.082;18.178;2022-12-10T10:03:14;98258.40;;;2.05;84.98
76337;BME280;65157;50.082;18.178;2022-12-10T10:05:50;98255.94;;;2.05;84.94
76337;BME280;65157;50.082;18.178;2022-12-10T10:08:28;98258.66;;;2.08;84.87
76337;BME280;65157;50.082;18.178;2022-12-10T10:10:55;98252.70;;;2.10;84.85
76337;BME280;65157;50.082;18.178;2022-12-10T10:13:36;98247.69;;;2.15;84.78
76337;BME280;65157;50.082;18.178;2022-12-10T10:18:58;98247.70;;;2.15;84.80
76337;BME280;65157;50.082;18.178;2022-12-10T10:21:27;98253.65;;;2.14;84.76
76337;BME280;65157;50.082;18.178;2022-12-10T10:23:56;98256.10;;;2.13;84.90
76337;BME280;65157;50.082;18.178;2022-12-10T10:26:26;98259.89;;;2.15;84.64
76337;BME280;65157;50.082;18.178;2022-12-10T10:29:00;98260.73;;;2.15;84.72
76337;BME280;65157;50.082;18.178;2022-12-10T10:31:29;98250.07;;;2.18;84.68
76337;BME280;65157;50.082;18.178;2022-12-10T10:34:15;98256.08;;;2.21;84.59
76337;BME280;65157;50.082;18.178;2022-12-10T10:36:42;98261.54;;;2.18;84.70
76337;BME280;65157;50.082;18.178;2022-12-10T10:39:10;98260.90;;;2.16;84.47
76337;BME280;65157;50.082;18.178;2022-12-10T10:41:39;98264.27;;;2.14;84.65
76337;BME280;65157;50.082;18.178;2022-12-10T10:44:15;98253.64;;;2.14;84.67
76337;BME280;65157;50.082;18.178;2022-12-10T10:46:45;98245.73;;;2.17;84.84
76337;BME280;65157;50.082;18.178;2022-12-10T10:49:30;98242.74;;;2.18;84.81
76337;BME280;65157;50.082;18.178;2022-12-10T10:52:15;98245.68;;;2.19;84.68
76337;BME280;65157;50.082;18.178;2022-12-10T10:54:44;98242.04;;;2.18;84.67
76337;BME280;65157;50.082;18.178;2022-12-10T10:57:26;98240.63;;;2.20;84.80
76337;BME280;65157;50.082;18.178;2022-12-10T10:59:56;98243.04;;;2.21;84.53
76337;BME280;65157;50.082;18.178;2022-12-10T11:02:32;98239.87;;;2.22;84.43
76337;BME280;65157;50.082;18.178;2022-12-10T11:05:07;98235.09;;;2.25;84.44
76337;BME280;65157;50.082;18.178;2022-12-10T11:07:39;98238.05;;;2.25;84.59
76337;BME280;65157;50.082;18.178;2022-12-10T11:10:27;98247.61;;;2.26;84.48
76337;BME280;65157;50.082;18.178;2022-12-10T11:13:06;98249.69;;;2.19;84.58
76337;BME280;65157;50.082;18.178;2022-12-10T11:15:38;98243.14;;;2.10;84.53
76337;BME280;65157;50.082;18.178;2022-12-10T11:18:23;98249.51;;;2.05;84.51
76337;BME280;65157;50.082;18.178;2022-12-10T11:21:17;98251.66;;;2.03;84.71
76337;BME280;65157;50.082;18.178;2022-12-10T11:23:56;98246.60;;;2.03;84.60
76337;BME280;65157;50.082;18.178;2022-12-10T11:26:53;98246.05;;;2.04;84.62
76337;BME280;65157;50.082;18.178;2022-12-10T11:30:10;98250.89;;;2.06;84.65
76337;BME280;65157;50.082;18.178;2022-12-10T11:32:33;98256.08;;;2.07;84.77
76337;BME280;65157;50.082;18.178;2022-12-10T11:37:39;98245.69;;;2.12;84.58
76337;BME280;65157;50.082;18.178;2022-12-10T11:40:34;98250.30;;;2.15;84.57
76337;BME280;65157;50.082;18.178;2022-12-10T11:52:20;98250.21;;;2.19;84.67
76337;BME280;65157;50.082;18.178;2022-12-10T11:55:05;98252.56;;;2.15;84.53
76337;BME280;65157;50.082;18.178;2022-12-10T11:57:38;98244.44;;;2.14;84.73
76337;BME280;65157;50.082;18.178;2022-12-10T12:00:30;98246.25;;;2.17;84.48
76337;BME280;65157;50.082;18.178;2022-12-10T12:03:11;98246.42;;;2.17;84.47
76337;BME280;65157;50.082;18.178;2022-12-10T12:16:18;98247.02;;;2.14;84.45
76337;BME280;65157;50.082;18.178;2022-12-10T12:18:55;98244.89;;;2.16;84.45
76337;BME280;65157;50.082;18.178;2022-12-10T12:21:24;98239.25;;;2.19;84.34
76337;BME280;65157;50.082;18.178;2022-12-10T12:24:01;98235.94;;;2.19;84.48
76337;BME280;65157;50.082;18.178;2022-12-10T12:26:35;98232.29;;;2.19;84.43
76337;BME280;65157;50.082;18.178;2022-12-10T12:29:19;98232.04;;;2.15;84.23
76337;BME280;65157;50.082;18.178;2022-12-10T12:31:54;98235.83;;;2.10;84.17
76337;BME280;65157;50.082;18.178;2022-12-10T12:34:28;98234.96;;;2.02;84.43
76337;BME280;65157;50.082;18.178;2022-12-10T12:37:00;98226.79;;;2.02;84.58
76337;BME280;65157;50.082;18.178;2022-12-10T12:39:40;98225.23;;;2.01;84.46
76337;BME280;65157;50.082;18.178;2022-12-10T12:42:24;98230.13;;;2.01;84.33
76337;BME280;65157;50.082;18.178;2022-12-10T12:45:10;98230.73;;;2.04;84.50
76337;BME280;65157;50.082;18.178;2022-12-10T12:47:54;98228.41;;;2.07;84.32
76337;BME280;65157;50.082;18.178;2022-12-10T12:53:02;98226.77;;;2.10;84.39
76337;BME280;65157;50.082;18.178;2022-12-10T12:56:04;98229.23;;;2.09;84.11
76337;BME280;65157;50.082;18.178;2022-12-10T12:58:45;98238.94;;;2.10;84.30
76337;BME280;65157;50.082;18.178;2022-12-10T13:03:50;98237.43;;;2.15;84.38
76337;BME280;65157;50.082;18.178;2022-12-10T13:06:26;98233.47;;;2.14;84.30
76337;BME280;65157;50.082;18.178;2022-12-10T13:09:24;98238.52;;;2.07;84.30
76337;BME280;65157;50.082;18.178;2022-12-10T13:14:36;98244.13;;;1.98;84.06
76337;BME280;65157;50.082;18.178;2022-12-10T13:17:31;98247.55;;;1.99;84.34
76337;BME280;65157;50.082;18.178;2022-12-10T13:20:35;98250.25;;;2.03;84.34
76337;BME280;65157;50.082;18.178;2022-12-10T13:39:22;98274.52;;;2.08;84.45
76337;BME280;65157;50.082;18.178;2022-12-10T13:53:30;98273.33;;;1.99;84.27
76337;BME280;65157;50.082;18.178;2022-12-10T13:56:16;98274.46;;;2.02;84.26
76337;BME280;65157;50.082;18.178;2022-12-10T14:04:28;98277.55;;;2.04;84.10
76337;BME280;65157;50.082;18.178;2022-12-10T14:07:02;98274.99;;;2.02;84.28
76337;BME280;65157;50.082;18.178;2022-12-10T14:09:34;98274.91;;;1.99;84.28
76337;BME280;65157;50.082;18.178;2022-12-10T14:12:10;98277.22;;;1.97;84.42
76337;BME280;65157;50.082;18.178;2022-12-10T14:14:48;98276.52;;;1.96;84.42
76337;BME280;65157;50.082;18.178;2022-12-10T14:17:19;98275.17;;;2.02;84.61
76337;BME280;65157;50.082;18.178;2022-12-10T14:19:49;98278.56;;;2.06;84.44
76337;BME280;65157;50.082;18.178;2022-12-10T14:22:20;98277.66;;;2.07;84.41
76337;BME280;65157;50.082;18.178;2022-12-10T14:24:50;98280.44;;;2.08;84.37
76337;BME280;65157;50.082;18.178;2022-12-10T14:27:19;98279.88;;;2.01;84.06
76337;BME280;65157;50.082;18.178;2022-12-10T14:29:52;98281.59;;;1.96;84.53
76337;BME280;65157;50.082;18.178;2022-12-10T14:32:21;98280.06;;;1.94;84.64
76337;BME280;65157;50.082;18.178;2022-12-10T14:34:56;98284.58;;;1.94;84.50
76337;BME280;65157;50.082;18.178;2022-12-10T14:37:26;98283.64;;;1.97;84.50
76337;BME280;65157;50.082;18.178;2022-12-10T14:39:54;98289.78;;;1.95;84.36
76337;BME280;65157;50.082;18.178;2022-12-10T14:42:21;98291.08;;;1.91;84.66
76337;BME280;65157;50.082;18.178;2022-12-10T14:44:56;98288.45;;;1.93;84.70
76337;BME280;65157;50.082;18.178;2022-12-10T14:47:23;98285.42;;;1.95;84.57
76337;BME280;65157;50.082;18.178;2022-12-10T14:49:54;98291.15;;;1.96;84.46